createdAt,value
2019-04-06T00:02:31.253Z,69.87
2019-04-06T00:05:00.092Z,69.90
2019-04-06T00:07:28.590Z,69.89
2019-04-06T00:09:57.086Z,69.90
2019-04-06T00:12:26.860Z,69.86
2019-04-06T00:14:55.343Z,69.81
2019-04-06T00:17:23.839Z,69.75
2019-04-06T00:19:52.317Z,69.83
2019-04-06T00:22:20.855Z,69.89
2019-04-06T00:24:49.677Z,69.96
2019-04-06T00:27:18.177Z,70.01
2019-04-06T00:29:46.654Z,69.91
2019-04-06T00:32:26.508Z,69.93
2019-04-06T00:34:54.990Z,70.02
2019-04-06T00:37:23.849Z,70.07
2019-04-06T00:39:52.602Z,70.09
2019-04-06T00:42:21.103Z,70.07
2019-04-06T00:44:49.907Z,70.17
2019-04-06T00:47:18.424Z,70.08
2019-04-06T00:49:47.261Z,70.07
2019-04-06T00:52:15.756Z,70.04
2019-04-06T00:54:44.247Z,70.06
2019-04-06T00:57:13.350Z,70.07
2019-04-06T00:59:42.090Z,69.93
2019-04-06T01:02:10.904Z,70.04
2019-04-06T01:04:39.420Z,70.12
2019-04-06T01:07:07.920Z,70.13
2019-04-06T01:09:36.716Z,70.11
2019-04-06T01:12:05.269Z,70.01
2019-04-06T01:14:33.759Z,70.07
2019-04-06T01:17:02.259Z,70.11
2019-04-06T01:19:30.734Z,70.00
2019-04-06T01:21:59.291Z,70.00
2019-04-06T01:24:27.775Z,70.02
2019-04-06T01:26:56.510Z,70.11
2019-04-06T01:29:24.993Z,70.13
2019-04-06T01:31:53.508Z,70.12
2019-04-06T01:34:22.272Z,70.14
2019-04-06T01:36:50.787Z,70.18
2019-04-06T01:39:19.275Z,70.18
2019-04-06T01:41:47.747Z,70.28
2019-04-06T01:44:16.250Z,70.34
2019-04-06T01:46:45.003Z,70.37
2019-04-06T01:49:13.499Z,70.34
2019-04-06T01:51:42.156Z,70.33
2019-04-06T01:54:10.572Z,70.40
2019-04-06T01:56:39.023Z,70.44
2019-04-06T01:59:07.615Z,70.32
2019-04-06T02:01:43.338Z,70.18
2019-04-06T02:04:11.838Z,70.20
2019-04-06T02:06:40.333Z,70.20
2019-04-06T02:09:08.813Z,70.23
2019-04-06T02:11:37.293Z,70.37
2019-04-06T02:14:05.774Z,70.33
2019-04-06T02:16:34.263Z,70.39
2019-04-06T02:19:02.826Z,70.31
2019-04-06T02:21:31.304Z,70.25
2019-04-06T02:23:59.793Z,70.20
2019-04-06T02:26:30.889Z,70.28
2019-04-06T02:28:58.615Z,70.39
2019-04-06T02:31:44.856Z,70.44
2019-04-06T02:34:31.492Z,70.43
2019-04-06T02:37:07.917Z,70.29
2019-04-06T02:39:42.741Z,70.15
2019-04-06T02:42:20.856Z,70.18
2019-04-06T02:44:49.326Z,70.23
2019-04-06T02:47:17.877Z,70.28
2019-04-06T02:49:46.346Z,70.37
2019-04-06T02:52:14.841Z,70.35
2019-04-06T02:54:43.291Z,70.33
2019-04-06T02:57:11.823Z,70.33
2019-04-06T02:59:40.301Z,70.42
2019-04-06T03:02:08.774Z,70.41
2019-04-06T03:04:37.271Z,70.42
2019-04-06T03:07:05.822Z,70.43
2019-04-06T03:09:34.391Z,70.44
2019-04-06T03:12:02.999Z,70.43
2019-04-06T03:14:31.746Z,70.42
2019-04-06T03:17:00.248Z,70.43
2019-04-06T03:19:28.738Z,70.34
2019-04-06T03:21:57.513Z,70.46
2019-04-06T03:24:26.002Z,70.56
2019-04-06T03:27:02.138Z,70.53
2019-04-06T03:29:24.692Z,70.63
2019-04-06T03:31:53.176Z,70.91
2019-04-06T03:34:22.522Z,70.81
2019-04-06T03:36:51.439Z,70.62
2019-04-06T03:39:19.993Z,70.52
2019-04-06T03:41:48.521Z,70.40
2019-04-06T03:44:16.994Z,70.35
2019-04-06T03:46:45.540Z,70.34
2019-04-06T03:49:14.181Z,70.49
2019-04-06T03:51:43.081Z,70.58
2019-04-06T03:54:11.563Z,70.62
2019-04-06T03:56:40.058Z,70.49
2019-04-06T03:59:08.556Z,70.41
2019-04-06T04:01:37.295Z,70.37
2019-04-06T04:04:05.785Z,70.41
2019-04-06T04:06:34.259Z,70.48
2019-04-06T04:09:03.164Z,70.65
2019-04-06T04:11:31.927Z,70.69
2019-04-06T04:14:00.745Z,70.65
2019-04-06T04:16:29.206Z,70.62
2019-04-06T04:18:57.712Z,70.69
2019-04-06T04:21:26.212Z,70.81
2019-04-06T04:23:54.701Z,70.77
2019-04-06T04:26:23.390Z,70.72
2019-04-06T04:28:51.926Z,70.81
2019-04-06T04:31:20.407Z,70.77
2019-04-06T04:33:49.179Z,70.72
2019-04-06T04:36:17.964Z,70.63
2019-04-06T04:38:46.749Z,70.65
2019-04-06T04:41:15.264Z,70.63
2019-04-06T04:43:43.730Z,70.65
2019-04-06T04:46:12.195Z,70.66
2019-04-06T04:48:40.953Z,70.54
2019-04-06T04:51:09.563Z,70.44
2019-04-06T04:53:38.032Z,70.51
2019-04-06T04:56:06.587Z,70.50
2019-04-06T04:58:35.072Z,70.57
2019-04-06T05:01:03.811Z,70.74
2019-04-06T05:03:32.294Z,70.89
2019-04-06T05:06:01.272Z,70.99
2019-04-06T05:08:29.718Z,70.93
2019-04-06T05:10:58.177Z,70.88
2019-04-06T05:13:26.695Z,70.85
2019-04-06T05:16:14.866Z,70.93
2019-04-06T05:18:43.585Z,71.02
2019-04-06T05:21:12.229Z,71.07
2019-04-06T05:23:40.875Z,71.09
2019-04-06T05:26:09.576Z,71.29
2019-04-06T05:28:38.061Z,71.22
2019-04-06T05:31:06.559Z,71.12
2019-04-06T05:33:35.397Z,71.00
2019-04-06T05:36:04.218Z,70.90
2019-04-06T05:38:32.690Z,70.85
2019-04-06T05:41:01.166Z,70.97
2019-04-06T05:43:29.698Z,70.97
2019-04-06T05:45:58.117Z,70.92
2019-04-06T05:48:26.742Z,70.86
2019-04-06T05:50:55.183Z,70.76
2019-04-06T05:53:23.678Z,70.68
2019-04-06T05:55:52.397Z,70.51
2019-04-06T05:58:21.034Z,70.56
2019-04-06T06:00:49.523Z,70.50
2019-04-06T06:03:18.109Z,70.52
2019-04-06T06:05:46.588Z,70.40
2019-04-06T06:08:15.113Z,70.33
2019-04-06T06:10:43.559Z,70.33
2019-04-06T06:13:12.118Z,70.40
2019-04-06T06:15:40.604Z,70.30
2019-04-06T06:18:09.092Z,70.18
2019-04-06T06:20:37.814Z,70.30
2019-04-06T06:23:06.338Z,70.24
2019-04-06T06:25:34.858Z,70.12
2019-04-06T06:28:13.868Z,70.03
2019-04-06T06:30:33.762Z,69.93
2019-04-06T06:33:02.267Z,70.01
2019-04-06T06:35:30.986Z,69.74
2019-04-06T06:37:59.492Z,69.66
2019-04-06T06:40:28.179Z,69.88
2019-04-06T06:42:56.693Z,69.98
2019-04-06T06:45:25.252Z,69.90
2019-04-06T06:47:53.742Z,70.00
2019-04-06T06:50:22.547Z,70.27
2019-04-06T06:52:51.051Z,70.05
2019-04-06T06:55:19.558Z,69.97
2019-04-06T06:57:48.063Z,69.90
2019-04-06T07:00:17.022Z,69.75
2019-04-06T07:02:45.513Z,69.73
2019-04-06T07:05:14.008Z,69.69
2019-04-06T07:07:42.757Z,69.57
2019-04-06T07:10:11.583Z,69.24
2019-04-06T07:12:40.041Z,68.90
2019-04-06T07:15:09.295Z,68.53
2019-04-06T07:17:38.098Z,70.39
2019-04-06T07:20:07.700Z,65.12
2019-04-06T07:22:36.765Z,65.23
2019-04-06T07:25:05.802Z,62.84
2019-04-06T07:27:34.318Z,62.21
2019-04-06T07:30:02.798Z,64.73
2019-04-06T07:32:31.391Z,66.61
2019-04-06T07:34:59.870Z,67.48
2019-04-06T07:37:28.365Z,67.97
2019-04-06T07:39:56.821Z,68.67
2019-04-06T07:42:25.325Z,68.99
2019-04-06T07:44:53.790Z,68.83
2019-04-06T07:47:22.563Z,68.70
2019-04-06T07:49:51.119Z,68.66
2019-04-06T07:52:19.698Z,68.55
2019-04-06T07:54:48.125Z,68.42
2019-04-06T07:57:16.616Z,68.30
2019-04-06T07:59:45.139Z,68.44
2019-04-06T08:02:13.641Z,68.40
2019-04-06T08:04:42.409Z,68.23
2019-04-06T08:07:11.197Z,68.42
2019-04-06T08:09:39.881Z,68.15
2019-04-06T08:12:08.381Z,67.65
2019-04-06T08:14:37.171Z,67.64
2019-04-06T08:17:05.663Z,67.48
2019-04-06T08:19:34.147Z,67.32
2019-04-06T08:22:02.639Z,67.24
2019-04-06T08:24:31.124Z,67.04
2019-04-06T08:26:59.601Z,66.74
2019-04-06T08:29:28.085Z,66.60
2019-04-06T08:31:56.704Z,66.73
2019-04-06T08:34:25.192Z,66.01
2019-04-06T08:36:53.683Z,65.97
2019-04-06T08:39:22.222Z,66.05
2019-04-06T08:41:51.224Z,66.22
2019-04-06T08:44:19.752Z,66.30
2019-04-06T08:46:48.582Z,66.28
2019-04-06T08:49:17.028Z,66.28
2019-04-06T08:51:45.512Z,66.41
2019-04-06T08:54:14.103Z,66.41
2019-04-06T08:56:42.654Z,66.02
2019-04-06T08:59:13.173Z,65.61
2019-04-06T09:01:41.717Z,65.14
2019-04-06T09:04:10.254Z,64.46
2019-04-06T09:06:38.759Z,64.17
2019-04-06T09:09:07.521Z,63.33
2019-04-06T09:11:36.018Z,62.92
2019-04-06T09:14:04.638Z,62.06
2019-04-06T09:16:33.234Z,61.36
2019-04-06T09:19:01.737Z,60.02
2019-04-06T09:21:30.230Z,59.22
2019-04-06T09:23:59.294Z,59.35
2019-04-06T09:26:27.786Z,59.60
2019-04-06T09:28:56.298Z,60.48
2019-04-06T09:31:24.795Z,61.62
2019-04-06T09:33:53.259Z,62.28
2019-04-06T09:36:22.081Z,62.47
2019-04-06T09:38:50.822Z,62.83
2019-04-06T09:41:19.581Z,62.81
2019-04-06T09:43:48.115Z,62.38
2019-04-06T09:46:26.956Z,62.54
2019-04-06T09:49:13.690Z,62.37
2019-04-06T09:51:59.674Z,62.28
2019-04-06T09:54:46.104Z,62.30
2019-04-06T09:57:21.947Z,62.09
2019-04-06T09:59:56.168Z,61.83
2019-04-06T10:02:43.714Z,61.72
2019-04-06T10:05:31.238Z,61.47
2019-04-06T10:08:34.207Z,61.25
2019-04-06T10:11:11.576Z,60.99
2019-04-06T10:14:17.512Z,60.91
2019-04-06T10:16:58.292Z,60.75
2019-04-06T10:19:44.441Z,60.40
2019-04-06T10:22:31.911Z,60.38
2019-04-06T10:25:28.736Z,60.18
2019-04-06T10:28:19.911Z,60.14
2019-04-06T10:31:06.291Z,60.02
2019-04-06T10:33:41.146Z,59.71
2019-04-06T10:36:15.640Z,59.75
2019-04-06T10:38:59.797Z,59.57
2019-04-06T10:41:53.377Z,59.71
2019-04-06T10:44:37.630Z,59.26
2019-04-06T10:47:30.936Z,59.18
2019-04-06T10:50:08.069Z,58.85
2019-04-06T10:52:58.407Z,58.71
2019-04-06T10:55:47.824Z,58.41
2019-04-06T10:58:28.933Z,58.19
2019-04-06T11:01:19.548Z,58.18
2019-04-06T11:03:56.480Z,58.08
2019-04-06T11:06:49.533Z,58.07
2019-04-06T11:09:37.252Z,57.99
2019-04-06T11:12:43.283Z,57.73
2019-04-06T11:15:21.644Z,57.79
2019-04-06T11:18:04.670Z,57.34
2019-04-06T11:20:46.681Z,57.48
2019-04-06T11:23:43.080Z,57.07
2019-04-06T11:26:36.610Z,57.02
2019-04-06T11:29:18.875Z,56.75
2019-04-06T11:32:03.731Z,55.71
2019-04-06T11:34:46.180Z,56.11
2019-04-06T11:37:34.878Z,55.88
2019-04-06T11:40:22.761Z,55.40
2019-04-06T11:43:07.004Z,55.61
2019-04-06T11:45:47.971Z,54.93
2019-04-06T11:48:33.035Z,54.79
2019-04-06T11:51:16.672Z,54.27
2019-04-06T11:54:07.236Z,54.27
2019-04-06T11:56:43.760Z,54.33
2019-04-06T11:59:22.967Z,53.97
2019-04-06T12:01:59.199Z,53.70
2019-04-06T12:04:59.321Z,53.10
2019-04-06T12:07:55.746Z,52.72
2019-04-06T12:10:43.114Z,53.02
2019-04-06T12:13:23.781Z,52.83
2019-04-06T12:16:10.270Z,51.39
2019-04-06T12:18:58.272Z,52.07
2019-04-06T12:21:49.115Z,51.03
2019-04-06T12:24:24.699Z,51.46
2019-04-06T12:27:06.686Z,51.10
2019-04-06T12:30:00.042Z,50.83
2019-04-06T12:32:50.859Z,50.63
2019-04-06T12:35:31.714Z,50.60
2019-04-06T12:38:17.823Z,50.03
2019-04-06T12:41:08.777Z,50.72
2019-04-06T12:43:59.134Z,52.66
2019-04-06T12:46:45.499Z,53.84
2019-04-06T12:49:39.793Z,54.66
2019-04-06T12:52:21.176Z,54.61
2019-04-06T12:55:07.517Z,54.49
2019-04-06T12:57:54.148Z,54.56
2019-04-06T13:04:47.753Z,52.85
2019-04-06T13:07:41.175Z,53.18
2019-04-06T13:10:31.528Z,52.96
2019-04-06T13:13:09.330Z,53.56
2019-04-06T13:15:55.345Z,52.87
2019-04-06T13:18:49.008Z,53.44
2019-04-06T13:21:51.668Z,53.87
2019-04-06T13:24:45.500Z,53.43
2019-04-06T13:27:23.881Z,53.12
2019-04-06T13:30:04.260Z,53.11
2019-04-06T13:32:49.235Z,53.46
2019-04-06T13:35:24.233Z,53.41
2019-04-06T13:38:07.242Z,53.13
2019-04-06T13:41:03.918Z,52.20
2019-04-06T13:44:00.610Z,52.02
2019-04-06T13:46:36.698Z,51.63
2019-04-06T13:49:11.430Z,51.42
2019-04-06T13:52:11.409Z,51.28
2019-04-06T13:55:02.090Z,50.56
2019-04-06T13:57:45.027Z,50.66
2019-04-06T14:00:32.370Z,50.91
2019-04-06T14:03:31.898Z,50.24
2019-04-06T14:06:21.667Z,49.84
2019-04-06T14:09:18.894Z,50.17
2019-04-06T14:11:53.779Z,50.52
2019-04-06T14:14:35.733Z,50.22
2019-04-06T14:17:32.641Z,50.51
2019-04-06T14:20:14.199Z,50.32
2019-04-06T14:23:13.854Z,49.87
2019-04-06T14:26:03.575Z,50.77
2019-04-06T14:28:50.697Z,50.34
2019-04-06T14:31:36.940Z,49.06
2019-04-06T14:34:18.548Z,48.60
2019-04-06T14:36:55.253Z,49.02
2019-04-06T14:39:44.026Z,49.77
2019-04-06T14:42:33.193Z,49.59
2019-04-06T14:45:20.096Z,49.16
2019-04-06T14:48:09.410Z,48.42
2019-04-06T14:50:54.011Z,47.93
2019-04-06T14:53:40.412Z,47.89
2019-04-06T14:56:21.700Z,47.28
2019-04-06T14:59:12.383Z,47.24
2019-04-06T15:01:59.299Z,47.67
2019-04-06T15:04:45.616Z,47.46
2019-04-06T15:07:24.889Z,47.65
2019-04-06T15:09:59.263Z,47.73
2019-04-06T15:12:37.295Z,46.84
2019-04-06T15:15:16.044Z,46.89
2019-04-06T15:17:56.149Z,47.44
2019-04-06T15:20:41.017Z,47.89
2019-04-06T15:23:26.791Z,47.99
2019-04-06T15:26:07.873Z,47.89
2019-04-06T15:28:50.690Z,48.01
2019-04-06T15:31:47.447Z,48.26
2019-04-06T15:34:41.731Z,48.36
2019-04-06T15:37:14.818Z,47.97
2019-04-06T15:39:56.711Z,47.56
2019-04-06T15:42:34.600Z,47.24
2019-04-06T15:45:40.301Z,47.02
2019-04-06T15:48:20.822Z,47.15
2019-04-06T15:51:12.087Z,47.43
2019-04-06T15:54:02.429Z,47.46
2019-04-06T15:56:52.955Z,47.61
2019-04-06T15:59:40.869Z,47.40
2019-04-06T16:02:31.593Z,47.11
2019-04-06T16:05:13.347Z,47.13
2019-04-06T16:07:49.316Z,47.18
2019-04-06T16:10:40.308Z,47.18
2019-04-06T16:13:15.815Z,47.58
2019-04-06T16:15:48.743Z,47.76
2019-04-06T16:18:36.533Z,47.75
2019-04-06T16:21:15.781Z,47.51
2019-04-06T16:24:02.231Z,47.54
2019-04-06T16:26:46.347Z,47.59
2019-04-06T16:29:45.838Z,47.66
2019-04-06T16:32:36.258Z,47.77
2019-04-06T16:35:13.762Z,47.83
2019-04-06T16:37:48.944Z,47.85
2019-04-06T16:40:29.582Z,47.84
2019-04-06T16:43:06.977Z,47.98
2019-04-06T16:45:47.031Z,48.06
2019-04-06T16:48:41.153Z,48.21
2019-04-06T16:51:18.679Z,48.30
2019-04-06T16:53:56.272Z,48.38
2019-04-06T16:56:30.707Z,48.48
2019-04-06T16:59:05.913Z,48.61
2019-04-06T17:01:39.466Z,48.70
2019-04-06T17:04:13.604Z,48.77
2019-04-06T17:07:01.717Z,48.84
2019-04-06T17:10:04.427Z,49.06
2019-04-06T17:13:04.146Z,49.12
2019-04-06T17:15:51.672Z,49.25
2019-04-06T17:18:37.827Z,49.30
2019-04-06T17:21:25.144Z,49.42
2019-04-06T17:24:15.691Z,49.48
2019-04-06T17:27:02.415Z,49.62
2019-04-06T17:29:41.617Z,49.80
2019-04-06T17:32:33.922Z,49.87
2019-04-06T17:35:09.866Z,49.98
2019-04-06T17:37:47.688Z,50.03
2019-04-06T17:40:27.953Z,50.11
2019-04-06T17:43:14.149Z,49.97
2019-04-06T17:46:08.291Z,50.35
2019-04-06T17:48:51.942Z,50.63
2019-04-06T17:51:44.023Z,50.77
2019-04-06T17:54:31.113Z,50.84
2019-04-06T17:57:17.883Z,51.05
2019-04-06T18:00:02.920Z,51.04
2019-04-06T18:02:50.896Z,51.19
2019-04-06T18:05:38.607Z,51.26
2019-04-06T18:08:41.537Z,51.20
2019-04-06T18:11:28.062Z,51.66
2019-04-06T18:13:56.778Z,51.75
2019-04-06T18:16:29.358Z,51.82
2019-04-06T18:18:57.925Z,51.88
2019-04-06T18:21:26.396Z,52.04
2019-04-06T18:23:55.271Z,52.08
2019-04-06T18:26:23.852Z,52.34
2019-04-06T18:28:52.749Z,52.49
2019-04-06T18:31:44.929Z,52.67
2019-04-06T18:34:13.713Z,52.66
2019-04-06T18:36:55.611Z,52.70
2019-04-06T18:39:24.336Z,52.91
2019-04-06T18:41:53.565Z,53.05
2019-04-06T18:44:23.062Z,53.04
2019-04-06T18:46:51.850Z,53.21
2019-04-06T18:49:20.390Z,53.25
2019-04-06T18:51:49.008Z,53.36
2019-04-06T18:54:17.505Z,53.54
2019-04-06T18:56:45.935Z,53.77
2019-04-06T18:59:15.154Z,53.91
2019-04-06T19:01:43.726Z,54.09
2019-04-06T19:04:12.302Z,54.13
2019-04-06T19:06:40.814Z,54.28
2019-04-06T19:09:20.663Z,54.26
2019-04-06T19:11:40.834Z,54.42
2019-04-06T19:14:11.117Z,54.33
2019-04-06T19:16:39.654Z,54.50
2019-04-06T19:19:08.131Z,54.56
2019-04-06T19:21:36.600Z,54.82
2019-04-06T19:24:05.515Z,55.00
2019-04-06T19:26:34.080Z,55.10
2019-04-06T19:29:03.112Z,55.11
2019-04-06T19:31:31.724Z,55.29
2019-04-06T19:34:00.581Z,55.34
2019-04-06T19:36:29.539Z,55.49
2019-04-06T19:38:58.120Z,55.49
2019-04-06T19:41:27.049Z,55.39
2019-04-06T19:43:55.666Z,55.58
2019-04-06T19:46:24.724Z,55.71
2019-04-06T19:48:53.295Z,55.67
2019-04-06T19:51:21.804Z,55.94
2019-04-06T19:53:50.306Z,56.07
2019-04-06T19:56:18.782Z,56.14
2019-04-06T19:58:54.999Z,56.11
2019-04-06T20:01:23.440Z,56.36
2019-04-06T20:03:52.688Z,56.46
2019-04-06T20:06:21.508Z,56.41
2019-04-06T20:08:50.007Z,56.52
2019-04-06T20:11:19.195Z,56.47
2019-04-06T20:13:47.968Z,56.33
2019-04-06T20:16:16.458Z,56.59
2019-04-06T20:18:45.052Z,56.73
2019-04-06T20:21:14.223Z,56.70
2019-04-06T20:23:42.965Z,57.00
2019-04-06T20:26:11.582Z,56.99
2019-04-06T20:28:40.090Z,57.10
2019-04-06T20:31:08.532Z,57.09
2019-04-06T20:33:47.339Z,57.25
2019-04-06T20:36:07.218Z,57.40
2019-04-06T20:38:35.958Z,57.43
2019-04-06T20:41:04.435Z,57.67
2019-04-06T20:43:34.391Z,57.90
2019-04-06T20:46:02.900Z,57.74
2019-04-06T20:48:31.415Z,58.02
2019-04-06T20:51:00.522Z,57.94
2019-04-06T20:53:29.043Z,58.21
2019-04-06T20:55:57.535Z,58.18
2019-04-06T20:58:26.046Z,58.46
2019-04-06T21:00:54.530Z,58.53
2019-04-06T21:03:23.280Z,58.62
2019-04-06T21:05:52.121Z,58.75
2019-04-06T21:08:20.874Z,58.73
2019-04-06T21:10:49.440Z,58.76
2019-04-06T21:13:17.918Z,59.00
2019-04-06T21:15:46.761Z,59.24
2019-04-06T21:18:15.261Z,59.25
2019-04-06T21:20:44.067Z,59.42
2019-04-06T21:23:12.911Z,59.36
2019-04-06T21:25:41.802Z,59.51
2019-04-06T21:28:10.349Z,59.71
2019-04-06T21:30:39.078Z,59.75
2019-04-06T21:33:07.953Z,59.75
2019-04-06T21:35:36.847Z,59.95
2019-04-06T21:38:05.555Z,60.11
2019-04-06T21:40:34.162Z,60.23
2019-04-06T21:43:03.084Z,60.12
2019-04-06T21:45:31.996Z,60.23
2019-04-06T21:48:00.545Z,60.47
2019-04-06T21:50:29.338Z,60.43
2019-04-06T21:52:57.851Z,60.51
2019-04-06T21:55:26.363Z,60.65
2019-04-06T21:57:55.334Z,60.80
2019-04-06T22:00:44.971Z,60.82
2019-04-06T22:03:13.934Z,60.73
2019-04-06T22:05:42.419Z,60.92
2019-04-06T22:08:10.885Z,60.90
2019-04-06T22:10:39.514Z,60.86
2019-04-06T22:13:08.387Z,60.95
2019-04-06T22:15:37.299Z,61.00
2019-04-06T22:18:06.209Z,61.43
2019-04-06T22:20:34.767Z,61.30
2019-04-06T22:23:03.827Z,61.40
2019-04-06T22:25:32.479Z,61.55
2019-04-06T22:28:01.011Z,61.58
2019-04-06T22:30:29.487Z,61.71
2019-04-06T22:32:57.999Z,61.62
2019-04-06T22:35:26.513Z,61.55
2019-04-06T22:37:56.187Z,61.45
2019-04-06T22:40:24.994Z,61.65
2019-04-06T22:42:54.122Z,61.59
2019-04-06T22:45:24.127Z,61.77
2019-04-06T22:47:53.096Z,61.83
2019-04-06T22:50:22.025Z,61.98
2019-04-06T22:52:50.570Z,61.99
2019-04-06T22:55:19.066Z,62.02
2019-04-06T22:57:47.781Z,62.00
2019-04-06T23:00:45.437Z,62.13
2019-04-06T23:03:31.953Z,62.07
2019-04-06T23:06:04.075Z,62.16
2019-04-06T23:08:32.640Z,62.33
2019-04-06T23:11:01.385Z,62.47
2019-04-06T23:13:30.254Z,62.58
2019-04-06T23:15:59.293Z,62.63
2019-04-06T23:18:27.795Z,62.56
2019-04-06T23:20:56.514Z,62.59
2019-04-06T23:23:25.065Z,62.77
2019-04-06T23:25:54.102Z,63.02
2019-04-06T23:28:22.677Z,63.09
2019-04-06T23:30:51.147Z,63.17
2019-04-06T23:33:20.067Z,63.36
2019-04-06T23:35:48.573Z,63.36
2019-04-06T23:38:17.063Z,63.41
2019-04-06T23:40:45.537Z,63.36
2019-04-06T23:43:14.007Z,63.26
2019-04-06T23:45:42.518Z,63.25
2019-04-06T23:48:11.027Z,63.24
2019-04-06T23:50:39.592Z,63.29
2019-04-06T23:53:08.064Z,63.13
2019-04-06T23:55:36.629Z,63.46
2019-04-06T23:58:05.041Z,63.43
